Time;durP1;ratioP1;P1;durP2;ratioP2;P2;SDS_P1;SDS_P2;PMS_P1;PMS_P2;Temp;Humidity;BMP_temperature;BMP_pressure;BME280_temperature;BME280_humidity;BME280_pressure;Samples;Min_cycle;Max_cycle;Signal;HPM_P1;HPM_P2
2023/05/16 00:00:53;;;;;;;2.85;2.65;;;;;;;;;;5021884;28;20049;-68
2023/05/16 00:03:19;;;;;;;5.13;2.60;;;;;;;;;;5022885;28;20046;-68
2023/05/16 00:05:45;;;;;;;3.42;2.92;;;;;;;;;;5022438;28;20054;-68
2023/05/16 00:08:11;;;;;;;2.95;2.60;;;;;;;;;;5023079;28;20384;-68
2023/05/16 00:10:36;;;;;;;5.32;2.90;;;;;;;;;;5022463;28;20578;-68
2023/05/16 00:13:02;;;;;;;2.90;2.70;;;;;;;;;;5014082;28;20045;-69
2023/05/16 00:15:28;;;;;;;3.03;2.72;;;;;;;;;;5023066;28;20170;-68
2023/05/16 00:17:58;;;;;;;4.07;3.10;;;;;;;;;;5015490;28;20057;-67
2023/05/16 00:20:27;;;;;;;3.40;3.00;;;;;;;;;;5023048;28;20160;-67
2023/05/16 00:22:53;;;;;;;3.30;3.00;;;;;;;;;;5021656;28;20045;-66
2023/05/16 00:25:19;;;;;;;3.30;2.80;;;;;;;;;;5020400;28;20202;-67
2023/05/16 00:27:45;;;;;;;2.83;2.53;;;;;;;;;;5022107;28;20498;-67
2023/05/16 00:30:11;;;;;;;4.05;2.90;;;;;;;;;;5037955;28;20046;-67
2023/05/16 00:32:36;;;;;;;3.97;2.95;;;;;;;;;;5018164;28;20065;-67
2023/05/16 00:35:02;;;;;;;3.17;2.88;;;;;;;;;;5015914;28;20068;-66
2023/05/16 00:37:28;;;;;;;4.18;2.60;;;;;;;;;;5037841;28;20156;-66
2023/05/16 00:39:53;;;;;;;7.28;3.10;;;;;;;;;;5037208;28;20049;-67
2023/05/16 00:42:20;;;;;;;7.38;3.00;;;;;;;;;;5022392;28;20046;-67
2023/05/16 00:44:46;;;;;;;2.78;2.58;;;;;;;;;;5019833;28;20817;-67
2023/05/16 00:47:11;;;;;;;3.03;2.70;;;;;;;;;;5037821;28;20114;-66
2023/05/16 00:49:37;;;;;;;2.80;2.60;;;;;;;;;;5021214;28;20049;-67
2023/05/16 00:52:03;;;;;;;3.30;3.00;;;;;;;;;;5021721;28;20159;-67
2023/05/16 00:54:29;;;;;;;3.47;3.13;;;;;;;;;;5019729;28;20056;-66
2023/05/16 00:56:58;;;;;;;3.80;2.90;;;;;;;;;;5016081;28;20161;-67
2023/05/16 00:59:24;;;;;;;4.85;3.05;;;;;;;;;;5022374;28;20053;-67
2023/05/16 01:01:50;;;;;;;3.40;3.10;;;;;;;;;;5036580;28;20060;-66
2023/05/16 01:04:17;;;;;;;7.97;2.85;;;;;;;;;;5018693;28;20049;-67
2023/05/16 01:06:44;;;;;;;3.90;2.90;;;;;;;;;;5009600;28;20049;-67
2023/05/16 01:09:11;;;;;;;3.28;2.97;;;;;;;;;;5020645;28;20046;-67
2023/05/16 01:11:51;;;;;;;3.67;2.60;;;;;;;;;;5018225;28;20045;-67
2023/05/16 01:14:34;;;;;;;3.22;2.92;;;;;;;;;;5031556;28;20192;-67
2023/05/16 01:17:47;;;;;;;3.63;2.88;;;;;;;;;;5019564;28;20044;-66
2023/05/16 01:20:18;;;;;;;5.78;3.03;;;;;;;;;;4997747;28;20058;-67
2023/05/16 01:22:44;;;;;;;5.00;3.10;;;;;;;;;;5019745;28;20132;-67
2023/05/16 01:25:44;;;;;;;3.00;2.70;;;;;;;;;;5033873;28;20055;-66
2023/05/16 01:28:12;;;;;;;3.00;2.80;;;;;;;;;;5017127;28;20123;-66
2023/05/16 01:30:40;;;;;;;4.57;4.10;;;;;;;;;;5017847;28;20072;-66
2023/05/16 01:33:07;;;;;;;3.83;3.40;;;;;;;;;;5020098;28;20041;-68
2023/05/16 01:35:38;;;;;;;4.43;3.22;;;;;;;;;;5036475;28;20110;-66
2023/05/16 01:38:24;;;;;;;4.28;3.50;;;;;;;;;;5020828;28;20477;-67
2023/05/16 01:41:03;;;;;;;3.65;3.20;;;;;;;;;;5021163;28;20053;-68
2023/05/16 01:43:41;;;;;;;4.32;3.15;;;;;;;;;;5021211;28;20045;-67
2023/05/16 01:46:13;;;;;;;5.80;3.03;;;;;;;;;;5019508;28;20136;-68
2023/05/16 01:48:50;;;;;;;6.57;3.28;;;;;;;;;;5035644;28;20851;-68
2023/05/16 01:51:17;;;;;;;6.97;3.33;;;;;;;;;;5014629;28;20037;-68
2023/05/16 01:53:44;;;;;;;3.20;2.90;;;;;;;;;;5018339;28;20417;-67
2023/05/16 01:56:15;;;;;;;4.70;2.88;;;;;;;;;;5016190;28;20041;-67
2023/05/16 01:58:41;;;;;;;3.30;2.67;;;;;;;;;;5035757;28;20041;-67
2023/05/16 02:01:07;;;;;;;4.45;3.30;;;;;;;;;;5034422;28;20045;-68
2023/05/16 02:03:33;;;;;;;5.10;3.38;;;;;;;;;;5035657;28;20049;-68
2023/05/16 02:05:59;;;;;;;4.25;3.25;;;;;;;;;;5020511;28;20557;-68
2023/05/16 02:08:26;;;;;;;4.13;3.47;;;;;;;;;;5036117;28;20060;-68
2023/05/16 02:10:52;;;;;;;5.07;3.40;;;;;;;;;;5020624;28;20128;-68
2023/05/16 02:13:18;;;;;;;6.38;3.22;;;;;;;;;;5015051;28;20520;-68
2023/05/16 02:15:44;;;;;;;3.78;3.47;;;;;;;;;;5035929;28;20502;-68
2023/05/16 02:18:10;;;;;;;5.07;3.50;;;;;;;;;;5019101;28;20045;-68
2023/05/16 02:20:35;;;;;;;3.92;3.53;;;;;;;;;;5018546;28;20056;-68
2023/05/16 02:23:02;;;;;;;3.08;2.88;;;;;;;;;;5014603;28;20054;-68
2023/05/16 02:25:28;;;;;;;3.90;3.50;;;;;;;;;;5020358;28;20041;-67
2023/05/16 02:27:53;;;;;;;7.72;3.08;;;;;;;;;;5020071;28;20049;-68
2023/05/16 02:30:19;;;;;;;3.55;3.05;;;;;;;;;;5035495;28;20053;-68
2023/05/16 02:32:44;;;;;;;3.75;3.38;;;;;;;;;;5020552;28;20371;-68
2023/05/16 02:35:11;;;;;;;3.92;3.63;;;;;;;;;;5034364;28;20410;-68
2023/05/16 02:37:37;;;;;;;3.92;3.53;;;;;;;;;;5019977;28;20053;-68
2023/05/16 02:40:04;;;;;;;4.07;3.42;;;;;;;;;;5018470;28;20059;-68
2023/05/16 02:42:30;;;;;;;6.32;3.63;;;;;;;;;;5020302;28;20060;-68
2023/05/16 02:44:56;;;;;;;6.07;3.95;;;;;;;;;;5034461;28;20060;-68
2023/05/16 02:47:23;;;;;;;5.05;3.90;;;;;;;;;;5035678;28;20045;-67
2023/05/16 02:49:48;;;;;;;4.15;3.75;;;;;;;;;;5019819;28;20060;-68
2023/05/16 02:52:13;;;;;;;5.03;3.88;;;;;;;;;;5020255;28;20041;-68
2023/05/16 02:54:39;;;;;;;4.55;4.10;;;;;;;;;;5019956;28;20041;-68
2023/05/16 02:57:04;;;;;;;4.20;3.75;;;;;;;;;;5034461;28;20525;-68
2023/05/16 02:59:30;;;;;;;4.57;4.05;;;;;;;;;;5032182;28;20045;-68
2023/05/16 03:01:56;;;;;;;5.03;4.03;;;;;;;;;;5016057;28;21036;-68
2023/05/16 03:04:22;;;;;;;4.10;3.70;;;;;;;;;;5019932;28;20049;-68
2023/05/16 03:06:49;;;;;;;4.45;3.75;;;;;;;;;;5031102;28;20141;-68
2023/05/16 03:09:15;;;;;;;4.53;3.67;;;;;;;;;;5019813;28;20045;-68
2023/05/16 03:11:42;;;;;;;4.32;3.92;;;;;;;;;;5020215;28;20054;-68
2023/05/16 03:14:08;;;;;;;4.63;4.18;;;;;;;;;;5034297;28;20050;-68
2023/05/16 03:16:35;;;;;;;6.32;4.30;;;;;;;;;;5035453;28;20041;-67
2023/05/16 03:19:01;;;;;;;4.88;4.35;;;;;;;;;;5033713;28;20049;-67
2023/05/16 03:21:26;;;;;;;7.07;4.47;;;;;;;;;;5035134;28;20048;-68
2023/05/16 03:23:53;;;;;;;5.30;4.80;;;;;;;;;;5033790;28;20124;-68
2023/05/16 03:26:20;;;;;;;7.68;4.65;;;;;;;;;;5019696;28;20045;-68
2023/05/16 03:28:48;;;;;;;6.13;4.55;;;;;;;;;;5019010;28;20049;-68
2023/05/16 03:31:14;;;;;;;5.72;5.13;;;;;;;;;;5034629;28;20044;-68
2023/05/16 03:33:39;;;;;;;6.82;5.13;;;;;;;;;;5019456;28;20041;-67
2023/05/16 03:36:05;;;;;;;6.72;5.10;;;;;;;;;;5019452;28;20045;-68
2023/05/16 03:38:31;;;;;;;5.57;4.93;;;;;;;;;;5014877;28;20049;-68
2023/05/16 03:40:56;;;;;;;5.25;4.60;;;;;;;;;;5020452;28;20524;-68
2023/05/16 03:43:22;;;;;;;5.80;5.20;;;;;;;;;;5013059;28;20045;-69
2023/05/16 03:45:47;;;;;;;5.10;4.55;;;;;;;;;;5020521;28;20467;-69
2023/05/16 03:48:13;;;;;;;5.45;4.60;;;;;;;;;;5020708;28;20042;-69
2023/05/16 03:50:38;;;;;;;6.30;4.65;;;;;;;;;;4988028;28;20081;-69
2023/05/16 03:53:04;;;;;;;7.55;5.20;;;;;;;;;;5019327;28;20045;-68
2023/05/16 03:55:30;;;;;;;7.85;5.25;;;;;;;;;;5019698;28;20413;-69
2023/05/16 03:57:55;;;;;;;7.45;5.38;;;;;;;;;;5016925;28;20103;-69
2023/05/16 04:00:21;;;;;;;6.90;5.28;;;;;;;;;;5011160;28;20053;-69
2023/05/16 04:02:46;;;;;;;8.52;5.45;;;;;;;;;;5014836;28;20052;-70
2023/05/16 04:05:12;;;;;;;5.93;5.32;;;;;;;;;;5007487;28;20540;-70
2023/05/16 04:07:38;;;;;;;6.50;4.85;;;;;;;;;;5019546;28;20037;-69
2023/05/16 04:10:05;;;;;;;5.63;4.97;;;;;;;;;;5016728;28;20054;-69
2023/05/16 04:12:30;;;;;;;6.60;5.25;;;;;;;;;;5013296;28;20064;-69
2023/05/16 04:14:56;;;;;;;5.65;4.90;;;;;;;;;;5012008;28;20053;-70
2023/05/16 04:17:21;;;;;;;5.70;4.53;;;;;;;;;;5022829;28;20049;-70
2023/05/16 04:19:47;;;;;;;8.10;4.90;;;;;;;;;;5022764;28;20061;-71
2023/05/16 04:22:12;;;;;;;7.30;4.55;;;;;;;;;;5020108;28;20053;-70
2023/05/16 04:24:37;;;;;;;5.18;4.50;;;;;;;;;;5014591;28;20211;-71
2023/05/16 04:27:04;;;;;;;8.80;5.95;;;;;;;;;;5010613;28;20041;-70
2023/05/16 04:29:31;;;;;;;6.80;5.28;;;;;;;;;;5012816;28;20052;-70
2023/05/16 04:31:56;;;;;;;6.40;5.65;;;;;;;;;;5035017;28;20045;-70
2023/05/16 04:34:26;;;;;;;9.90;5.53;;;;;;;;;;5012541;28;20108;-70
2023/05/16 04:36:53;;;;;;;5.20;4.55;;;;;;;;;;5015227;28;20038;-71
2023/05/16 04:39:18;;;;;;;6.82;5.53;;;;;;;;;;5003209;28;20120;-70
2023/05/16 04:41:44;;;;;;;8.18;5.88;;;;;;;;;;5016965;28;20194;-70
2023/05/16 04:44:10;;;;;;;6.20;5.22;;;;;;;;;;5013265;28;20060;-71
2023/05/16 04:46:35;;;;;;;6.50;5.30;;;;;;;;;;5014747;28;20049;-70
2023/05/16 04:49:01;;;;;;;6.05;5.30;;;;;;;;;;5012441;28;20041;-70
2023/05/16 04:51:31;;;;;;;8.07;5.88;;;;;;;;;;5010744;28;20041;-69
2023/05/16 04:53:56;;;;;;;8.15;6.20;;;;;;;;;;5026835;28;20045;-69
2023/05/16 04:56:22;;;;;;;6.45;5.72;;;;;;;;;;5015245;28;20049;-70
2023/05/16 04:58:47;;;;;;;7.80;5.93;;;;;;;;;;5012664;28;20049;-70
2023/05/16 05:01:13;;;;;;;6.78;5.57;;;;;;;;;;5015386;28;20042;-69
2023/05/16 05:03:38;;;;;;;6.05;5.45;;;;;;;;;;5014698;28;20640;-69
2023/05/16 05:06:04;;;;;;;6.25;5.63;;;;;;;;;;5013053;28;20050;-70
2023/05/16 05:08:29;;;;;;;10.73;5.82;;;;;;;;;;5013807;28;20045;-69
2023/05/16 05:10:55;;;;;;;8.18;5.55;;;;;;;;;;5011548;28;20053;-69
2023/05/16 05:13:21;;;;;;;8.93;5.57;;;;;;;;;;5014146;28;20068;-70
2023/05/16 05:15:46;;;;;;;5.70;5.10;;;;;;;;;;5016120;28;20069;-69
2023/05/16 05:18:12;;;;;;;5.82;5.10;;;;;;;;;;5014010;28;20068;-69
2023/05/16 05:20:37;;;;;;;6.40;5.75;;;;;;;;;;5014817;28;20128;-70
2023/05/16 05:23:02;;;;;;;7.78;5.18;;;;;;;;;;5013351;28;20049;-70
2023/05/16 05:25:28;;;;;;;6.35;5.15;;;;;;;;;;5012110;28;20050;-70
2023/05/16 05:27:53;;;;;;;9.57;4.80;;;;;;;;;;5011735;28;20125;-70
2023/05/16 05:30:19;;;;;;;6.88;5.18;;;;;;;;;;5016202;28;20439;-70
2023/05/16 05:32:44;;;;;;;5.75;4.93;;;;;;;;;;5012328;28;20107;-70
2023/05/16 05:35:10;;;;;;;7.28;5.38;;;;;;;;;;5009154;28;20058;-70
2023/05/16 05:37:35;;;;;;;6.60;4.93;;;;;;;;;;5021787;28;20052;-69
2023/05/16 05:40:01;;;;;;;5.93;5.13;;;;;;;;;;5020721;28;20045;-70
2023/05/16 05:42:27;;;;;;;7.15;5.10;;;;;;;;;;5012636;28;20056;-69
2023/05/16 05:44:52;;;;;;;9.65;6.03;;;;;;;;;;5017978;28;20053;-69
2023/05/16 05:47:18;;;;;;;8.07;5.78;;;;;;;;;;5021142;28;20184;-69
2023/05/16 05:49:43;;;;;;;7.60;5.65;;;;;;;;;;5012539;28;20164;-70
2023/05/16 05:52:09;;;;;;;7.45;5.88;;;;;;;;;;5009809;28;20041;-70
2023/05/16 05:54:35;;;;;;;8.68;5.65;;;;;;;;;;5010626;28;20407;-70
2023/05/16 05:57:00;;;;;;;8.82;5.78;;;;;;;;;;5021088;28;20056;-71
2023/05/16 05:59:26;;;;;;;7.03;6.28;;;;;;;;;;5020855;28;20520;-71
2023/05/16 06:01:52;;;;;;;6.93;6.13;;;;;;;;;;5020183;28;20048;-71
2023/05/16 06:04:20;;;;;;;8.43;6.03;;;;;;;;;;5019856;28;20084;-71
2023/05/16 06:06:46;;;;;;;7.45;5.95;;;;;;;;;;5020873;28;20144;-71
2023/05/16 06:09:13;;;;;;;11.05;5.85;;;;;;;;;;5020683;28;20140;-70
2023/05/16 06:11:39;;;;;;;7.22;5.43;;;;;;;;;;5021081;28;20053;-70
2023/05/16 06:14:05;;;;;;;10.60;6.22;;;;;;;;;;5013083;28;20555;-70
2023/05/16 06:16:30;;;;;;;8.25;5.63;;;;;;;;;;5020916;28;20160;-70
2023/05/16 06:18:56;;;;;;;7.18;6.03;;;;;;;;;;5020344;28;20099;-71
2023/05/16 06:21:21;;;;;;;6.75;5.82;;;;;;;;;;5014739;28;20483;-71
2023/05/16 06:23:47;;;;;;;8.55;6.00;;;;;;;;;;5019459;28;20116;-70
2023/05/16 06:26:12;;;;;;;8.48;5.80;;;;;;;;;;5017759;28;20137;-70
2023/05/16 06:28:37;;;;;;;8.13;6.38;;;;;;;;;;5009259;28;20132;-70
2023/05/16 06:31:03;;;;;;;11.52;6.40;;;;;;;;;;5020299;28;20041;-70
2023/05/16 06:33:28;;;;;;;7.63;6.57;;;;;;;;;;5020424;28;20042;-70
2023/05/16 06:35:54;;;;;;;10.68;6.68;;;;;;;;;;5017082;28;21249;-71
2023/05/16 06:38:19;;;;;;;8.52;6.70;;;;;;;;;;5009180;28;20061;-70
2023/05/16 06:40:45;;;;;;;12.65;7.07;;;;;;;;;;5015056;28;20133;-70
2023/05/16 06:43:13;;;;;;;11.52;6.57;;;;;;;;;;5020193;28;20095;-69
2023/05/16 06:45:38;;;;;;;8.98;7.15;;;;;;;;;;5020132;28;20041;-69
2023/05/16 06:48:06;;;;;;;15.75;7.22;;;;;;;;;;5018363;28;20045;-69
2023/05/16 06:50:34;;;;;;;8.85;6.80;;;;;;;;;;5019940;28;20095;-70
2023/05/16 06:52:59;;;;;;;9.82;6.55;;;;;;;;;;5017871;28;20056;-69
2023/05/16 06:55:25;;;;;;;9.02;6.85;;;;;;;;;;5020307;28;20049;-70
2023/05/16 06:57:50;;;;;;;8.18;6.55;;;;;;;;;;5009430;28;20061;-70
2023/05/16 07:00:16;;;;;;;7.47;6.72;;;;;;;;;;5013304;28;20050;-69
2023/05/16 07:02:42;;;;;;;8.27;7.10;;;;;;;;;;5010300;28;20696;-71
2023/05/16 07:05:07;;;;;;;10.52;7.00;;;;;;;;;;5012615;28;20045;-70
2023/05/16 07:07:33;;;;;;;10.68;6.95;;;;;;;;;;5011649;28;20042;-70
2023/05/16 07:09:58;;;;;;;9.98;6.53;;;;;;;;;;5011268;28;20395;-70
2023/05/16 07:12:24;;;;;;;10.45;7.05;;;;;;;;;;5019999;28;20051;-69
2023/05/16 07:14:49;;;;;;;7.75;6.60;;;;;;;;;;5013809;28;20115;-70
2023/05/16 07:17:15;;;;;;;9.90;7.18;;;;;;;;;;5015199;28;20053;-69
2023/05/16 07:19:41;;;;;;;10.15;6.90;;;;;;;;;;5015354;28;20057;-70
2023/05/16 07:22:06;;;;;;;10.95;7.40;;;;;;;;;;5011335;28;20077;-69
2023/05/16 07:24:32;;;;;;;14.07;7.63;;;;;;;;;;5019303;28;20115;-71
2023/05/16 07:26:57;;;;;;;11.73;8.05;;;;;;;;;;5017842;28;20049;-69
2023/05/16 07:29:23;;;;;;;11.07;7.35;;;;;;;;;;5019801;28;20136;-69
2023/05/16 07:31:48;;;;;;;8.07;7.28;;;;;;;;;;5017992;28;20049;-71
2023/05/16 07:34:14;;;;;;;13.88;7.90;;;;;;;;;;5010907;28;20116;-71
2023/05/16 07:36:40;;;;;;;9.30;7.60;;;;;;;;;;5020011;28;20084;-71
2023/05/16 07:39:05;;;;;;;7.55;6.70;;;;;;;;;;5019803;28;20049;-71
2023/05/16 07:41:31;;;;;;;9.95;6.70;;;;;;;;;;5018938;28;20041;-71
2023/05/16 07:43:56;;;;;;;12.57;6.53;;;;;;;;;;5018758;28;20530;-72
2023/05/16 07:46:22;;;;;;;7.57;6.57;;;;;;;;;;5019957;28;20410;-71
2023/05/16 07:48:47;;;;;;;8.40;6.38;;;;;;;;;;5022856;28;20049;-71
2023/05/16 07:51:13;;;;;;;7.32;6.50;;;;;;;;;;5023425;28;21052;-71
2023/05/16 07:53:38;;;;;;;8.38;6.88;;;;;;;;;;5016052;28;20041;-70
2023/05/16 07:56:04;;;;;;;9.82;6.50;;;;;;;;;;5022092;28;20041;-69
2023/05/16 07:58:29;;;;;;;9.32;6.72;;;;;;;;;;5023714;28;20057;-69
2023/05/16 08:00:55;;;;;;;9.75;6.82;;;;;;;;;;5022856;28;20056;-72
2023/05/16 08:03:20;;;;;;;8.52;7.05;;;;;;;;;;5022240;28;20147;-70
2023/05/16 08:05:47;;;;;;;11.60;7.10;;;;;;;;;;5022741;28;20147;-71
2023/05/16 08:08:13;;;;;;;9.02;6.55;;;;;;;;;;5014954;28;20079;-70
2023/05/16 08:10:38;;;;;;;7.50;6.75;;;;;;;;;;5017555;28;20038;-70
2023/05/16 08:13:04;;;;;;;7.85;6.25;;;;;;;;;;5014273;28;20418;-69
2023/05/16 08:15:31;;;;;;;9.75;7.20;;;;;;;;;;5011590;28;20053;-70
2023/05/16 08:17:57;;;;;;;9.95;6.70;;;;;;;;;;5014364;28;20155;-71
2023/05/16 08:20:23;;;;;;;7.30;6.18;;;;;;;;;;5015788;28;20046;-70
2023/05/16 08:22:49;;;;;;;7.25;6.40;;;;;;;;;;5009587;28;20403;-70
2023/05/16 08:25:15;;;;;;;8.77;6.18;;;;;;;;;;5021188;28;20111;-70
2023/05/16 08:27:40;;;;;;;8.23;6.47;;;;;;;;;;5016760;28;20045;-70
2023/05/16 08:30:07;;;;;;;9.18;6.60;;;;;;;;;;5018706;28;20065;-69
2023/05/16 08:32:32;;;;;;;9.95;6.60;;;;;;;;;;5015613;28;20136;-70
2023/05/16 08:34:59;;;;;;;8.10;6.00;;;;;;;;;;5037536;28;20521;-70
2023/05/16 08:37:24;;;;;;;8.68;5.80;;;;;;;;;;5020287;28;20461;-72
2023/05/16 08:39:50;;;;;;;6.10;5.50;;;;;;;;;;5012258;28;20045;-71
2023/05/16 08:42:15;;;;;;;8.63;4.68;;;;;;;;;;5020287;28;20060;-71
2023/05/16 08:44:41;;;;;;;7.70;5.50;;;;;;;;;;5020375;28;20050;-69
2023/05/16 08:47:12;;;;;;;8.18;5.30;;;;;;;;;;5019227;28;20064;-69
2023/05/16 08:49:40;;;;;;;7.55;5.32;;;;;;;;;;5022127;28;20057;-70
2023/05/16 08:52:08;;;;;;;7.53;6.10;;;;;;;;;;5015269;28;20119;-70
2023/05/16 08:54:35;;;;;;;7.18;5.95;;;;;;;;;;5019920;28;20560;-69
2023/05/16 08:57:04;;;;;;;6.80;6.15;;;;;;;;;;5020532;28;20682;-68
2023/05/16 08:59:30;;;;;;;7.25;6.50;;;;;;;;;;5019530;28;20060;-69
2023/05/16 09:01:56;;;;;;;9.18;6.60;;;;;;;;;;5018214;28;20046;-68
2023/05/16 09:04:24;;;;;;;7.57;6.53;;;;;;;;;;5014323;28;20045;-67
2023/05/16 09:06:49;;;;;;;6.88;6.18;;;;;;;;;;5009227;28;20078;-68
2023/05/16 09:09:15;;;;;;;10.75;5.82;;;;;;;;;;5013305;28;20069;-68
2023/05/16 09:11:41;;;;;;;8.13;6.03;;;;;;;;;;5013228;28;20646;-71
2023/05/16 09:14:06;;;;;;;6.97;6.00;;;;;;;;;;5016120;28;20595;-69
2023/05/16 09:16:32;;;;;;;7.93;5.53;;;;;;;;;;5018354;28;20053;-68
2023/05/16 09:18:59;;;;;;;12.38;6.90;;;;;;;;;;5014786;28;20049;-69
2023/05/16 09:21:30;;;;;;;5.95;5.35;;;;;;;;;;5014815;28;20053;-70
2023/05/16 09:24:01;;;;;;;7.35;5.80;;;;;;;;;;5008538;28;20038;-70
2023/05/16 09:26:27;;;;;;;6.47;5.88;;;;;;;;;;5015818;28;20050;-70
2023/05/16 09:28:54;;;;;;;8.70;6.65;;;;;;;;;;5019125;28;20052;-69
2023/05/16 09:31:25;;;;;;;8.43;5.78;;;;;;;;;;5019889;28;20121;-69
2023/05/16 09:33:57;;;;;;;6.88;6.00;;;;;;;;;;5020347;28;20041;-70
2023/05/16 09:36:22;;;;;;;7.13;6.03;;;;;;;;;;5021689;28;20554;-70
2023/05/16 09:38:51;;;;;;;6.97;5.68;;;;;;;;;;5019793;28;20090;-69
2023/05/16 09:41:17;;;;;;;7.15;6.28;;;;;;;;;;5020312;28;20132;-68
2023/05/16 09:43:43;;;;;;;6.68;6.05;;;;;;;;;;5019072;28;20120;-68
2023/05/16 09:46:15;;;;;;;7.53;6.75;;;;;;;;;;5018081;28;20045;-70
2023/05/16 09:48:44;;;;;;;8.02;6.55;;;;;;;;;;5017721;28;20128;-69
2023/05/16 09:51:11;;;;;;;6.78;6.07;;;;;;;;;;5019407;28;20049;-69
2023/05/16 09:53:37;;;;;;;8.43;7.20;;;;;;;;;;5017833;28;20136;-69
2023/05/16 09:56:10;;;;;;;8.93;7.20;;;;;;;;;;5014284;28;20578;-68
2023/05/16 09:58:38;;;;;;;9.95;7.68;;;;;;;;;;5015798;28;20041;-68
2023/05/16 10:01:04;;;;;;;8.55;7.40;;;;;;;;;;5020964;28;20106;-68
2023/05/16 10:03:31;;;;;;;7.93;7.13;;;;;;;;;;5014189;28;20045;-70
2023/05/16 10:05:58;;;;;;;11.13;7.40;;;;;;;;;;5013582;28;20124;-70
2023/05/16 10:08:25;;;;;;;9.88;7.50;;;;;;;;;;5016063;28;20157;-69
2023/05/16 10:10:52;;;;;;;10.20;8.20;;;;;;;;;;5018991;28;20049;-69
2023/05/16 10:13:20;;;;;;;10.13;8.43;;;;;;;;;;5009294;28;20046;-69
2023/05/16 10:15:47;;;;;;;10.65;7.72;;;;;;;;;;5016553;28;20089;-69
2023/05/16 10:18:13;;;;;;;8.88;7.45;;;;;;;;;;5017050;28;20418;-70
2023/05/16 10:20:41;;;;;;;11.63;7.80;;;;;;;;;;5012134;28;20096;-69
2023/05/16 10:23:08;;;;;;;8.73;7.82;;;;;;;;;;5009009;28;20402;-69
2023/05/16 10:25:39;;;;;;;9.02;8.05;;;;;;;;;;5019659;28;20052;-70
2023/05/16 10:28:07;;;;;;;9.00;8.10;;;;;;;;;;5012097;28;20495;-70
2023/05/16 10:30:33;;;;;;;8.10;7.30;;;;;;;;;;5021091;28;20111;-69
2023/05/16 10:33:00;;;;;;;8.60;7.70;;;;;;;;;;5013786;28;20550;-69
2023/05/16 10:35:26;;;;;;;14.32;8.25;;;;;;;;;;5018399;28;20183;-71
2023/05/16 10:37:52;;;;;;;10.35;8.60;;;;;;;;;;5013249;28;20136;-71
2023/05/16 10:40:19;;;;;;;12.18;7.50;;;;;;;;;;5013246;28;20049;-70
2023/05/16 10:42:55;;;;;;;12.32;8.68;;;;;;;;;;5007756;28;20050;-70
2023/05/16 10:45:21;;;;;;;9.82;8.77;;;;;;;;;;5008773;28;20061;-71
2023/05/16 10:47:55;;;;;;;9.93;7.90;;;;;;;;;;5015782;28;20574;-70
2023/05/16 10:50:33;;;;;;;9.63;8.63;;;;;;;;;;5023859;28;20102;-70
2023/05/16 10:53:12;;;;;;;11.13;9.10;;;;;;;;;;5012326;28;20100;-70
2023/05/16 10:55:38;;;;;;;11.70;8.85;;;;;;;;;;5011632;28;20034;-70
2023/05/16 10:58:04;;;;;;;10.93;9.43;;;;;;;;;;5019258;28;20387;-70
2023/05/16 11:00:29;;;;;;;13.23;8.75;;;;;;;;;;5013087;28;20037;-70
2023/05/16 11:03:04;;;;;;;12.82;9.15;;;;;;;;;;5016029;28;20424;-70
2023/05/16 11:05:30;;;;;;;10.48;8.77;;;;;;;;;;5009615;28;20052;-70
2023/05/16 11:08:05;;;;;;;10.05;9.05;;;;;;;;;;5018209;28;20049;-70
2023/05/16 11:10:30;;;;;;;13.63;9.35;;;;;;;;;;5013881;28;21245;-70
2023/05/16 11:13:06;;;;;;;11.30;9.85;;;;;;;;;;5009640;28;20034;-70
2023/05/16 11:15:31;;;;;;;14.10;9.82;;;;;;;;;;5015084;28;20418;-69
2023/05/16 11:18:08;;;;;;;13.98;10.15;;;;;;;;;;5008507;28;20603;-70
2023/05/16 11:20:39;;;;;;;14.18;10.80;;;;;;;;;;5014832;28;20557;-69
2023/05/16 11:23:16;;;;;;;11.93;10.73;;;;;;;;;;5016444;28;20048;-70
2023/05/16 11:25:44;;;;;;;14.48;10.70;;;;;;;;;;5018009;28;20049;-72
2023/05/16 11:28:11;;;;;;;13.43;10.90;;;;;;;;;;5022029;28;20076;-73
2023/05/16 11:30:41;;;;;;;18.60;11.63;;;;;;;;;;5015018;28;20100;-71
2023/05/16 11:33:07;;;;;;;14.52;12.10;;;;;;;;;;5014798;28;20048;-68
2023/05/16 11:35:33;;;;;;;13.32;10.90;;;;;;;;;;5019935;28;20410;-68
2023/05/16 11:37:58;;;;;;;16.35;12.07;;;;;;;;;;5016209;28;20156;-68
2023/05/16 11:40:25;;;;;;;17.85;13.02;;;;;;;;;;5014044;28;20050;-68
2023/05/16 11:42:51;;;;;;;13.75;12.25;;;;;;;;;;5022285;28;20050;-68
2023/05/16 11:45:23;;;;;;;20.77;13.52;;;;;;;;;;5016930;28;20100;-68
2023/05/16 11:47:48;;;;;;;;;;;;;;;;;;5018669;28;20098;-70
2023/05/16 11:50:18;;;;;;;15.40;12.75;;;;;;;;;;5019224;28;19926;-68
2023/05/16 11:52:52;;;;;;;14.93;12.75;;;;;;;;;;5011805;28;20041;-68
2023/05/16 11:55:20;;;;;;;17.38;13.30;;;;;;;;;;5021122;28;20128;-68
2023/05/16 11:57:46;;;;;;;18.33;12.95;;;;;;;;;;5011844;28;20064;-68
2023/05/16 12:00:18;;;;;;;15.40;13.75;;;;;;;;;;5015951;28;20486;-68
2023/05/16 12:02:47;;;;;;;15.90;13.02;;;;;;;;;;5023436;28;20494;-68
2023/05/16 12:05:14;;;;;;;16.25;13.57;;;;;;;;;;5016231;28;20045;-68
2023/05/16 12:07:43;;;;;;;15.93;13.68;;;;;;;;;;5017066;28;20037;-68
2023/05/16 12:10:10;;;;;;;24.95;16.55;;;;;;;;;;5012835;28;20069;-67
2023/05/16 12:12:37;;;;;;;27.08;17.10;;;;;;;;;;5021420;28;20148;-69
2023/05/16 12:15:05;;;;;;;22.13;16.67;;;;;;;;;;5018338;28;20041;-69
2023/05/16 12:17:31;;;;;;;25.35;16.52;;;;;;;;;;5010804;28;20037;-69
2023/05/16 12:19:57;;;;;;;24.63;17.38;;;;;;;;;;5011892;28;20037;-69
2023/05/16 12:22:24;;;;;;;28.10;15.88;;;;;;;;;;5018357;28;20407;-69
2023/05/16 12:24:50;;;;;;;22.85;16.80;;;;;;;;;;5014788;28;20046;-69
2023/05/16 12:27:23;;;;;;;25.98;18.33;;;;;;;;;;5014799;28;20050;-69
2023/05/16 12:29:49;;;;;;;26.10;18.98;;;;;;;;;;5019580;28;20056;-69
2023/05/16 12:32:20;;;;;;;24.08;18.17;;;;;;;;;;5020721;28;20057;-69
2023/05/16 12:34:50;;;;;;;20.15;16.83;;;;;;;;;;5018134;28;20053;-69
2023/05/16 12:37:16;;;;;;;18.42;14.65;;;;;;;;;;5017030;28;20050;-69
2023/05/16 12:39:42;;;;;;;17.55;15.32;;;;;;;;;;5017331;28;20068;-69
2023/05/16 12:42:08;;;;;;;21.08;14.68;;;;;;;;;;5020188;28;20155;-70
2023/05/16 12:44:34;;;;;;;19.08;15.38;;;;;;;;;;5012279;28;20080;-69
2023/05/16 12:47:01;;;;;;;16.73;14.90;;;;;;;;;;5021193;28;20155;-69
2023/05/16 12:49:26;;;;;;;15.65;12.73;;;;;;;;;;5018941;28;20053;-69
2023/05/16 12:51:54;;;;;;;14.45;12.63;;;;;;;;;;5011271;28;20060;-69
2023/05/16 12:54:21;;;;;;;15.07;11.88;;;;;;;;;;5020164;28;20095;-69
2023/05/16 12:56:47;;;;;;;12.50;10.88;;;;;;;;;;5015792;28;20084;-69
2023/05/16 12:59:13;;;;;;;12.88;10.68;;;;;;;;;;5017812;28;20045;-70
2023/05/16 13:01:39;;;;;;;12.93;10.55;;;;;;;;;;5015647;28;20045;-69
2023/05/16 13:04:05;;;;;;;12.18;10.15;;;;;;;;;;5017708;28;20132;-69
2023/05/16 13:06:31;;;;;;;13.63;10.45;;;;;;;;;;5021055;28;20049;-69
2023/05/16 13:08:57;;;;;;;12.30;10.32;;;;;;;;;;5016988;28;20052;-69
2023/05/16 13:11:23;;;;;;;12.15;10.18;;;;;;;;;;5014301;28;20060;-69
2023/05/16 13:13:49;;;;;;;12.25;9.90;;;;;;;;;;5018222;28;20038;-68
2023/05/16 13:16:15;;;;;;;12.13;10.60;;;;;;;;;;5013637;28;20419;-69
2023/05/16 13:18:40;;;;;;;12.43;11.13;;;;;;;;;;5009108;28;20056;-69
2023/05/16 13:21:06;;;;;;;13.10;11.68;;;;;;;;;;5013702;28;20053;-69
2023/05/16 13:23:34;;;;;;;15.35;11.95;;;;;;;;;;5025885;28;20041;-68
2023/05/16 13:26:00;;;;;;;14.32;11.25;;;;;;;;;;5012687;28;20829;-69
2023/05/16 13:28:25;;;;;;;13.88;12.48;;;;;;;;;;5008152;28;20052;-69
2023/05/16 13:30:51;;;;;;;15.23;12.50;;;;;;;;;;5012369;28;20041;-69
2023/05/16 13:33:16;;;;;;;15.32;12.63;;;;;;;;;;5019123;28;20049;-68
2023/05/16 13:35:43;;;;;;;16.45;13.52;;;;;;;;;;5018392;28;20044;-69
2023/05/16 13:38:08;;;;;;;15.25;12.27;;;;;;;;;;5018614;28;20106;-69
2023/05/16 13:40:35;;;;;;;34.67;15.82;;;;;;;;;;5004726;28;20498;-68
2023/05/16 13:43:00;;;;;;;16.67;13.02;;;;;;;;;;5015386;28;20099;-68
2023/05/16 13:45:27;;;;;;;19.52;14.43;;;;;;;;;;5017353;28;20049;-69
2023/05/16 13:47:52;;;;;;;18.33;12.75;;;;;;;;;;5017683;28;20042;-69
2023/05/16 13:50:18;;;;;;;14.00;11.30;;;;;;;;;;5019936;28;20409;-69
2023/05/16 13:52:43;;;;;;;17.73;12.85;;;;;;;;;;5014816;28;20141;-69
2023/05/16 13:55:09;;;;;;;17.80;13.65;;;;;;;;;;5010792;28;20046;-68
2023/05/16 13:57:35;;;;;;;21.13;13.82;;;;;;;;;;5010893;28;20056;-69
2023/05/16 14:00:03;;;;;;;15.40;13.55;;;;;;;;;;5005948;28;20055;-69
2023/05/16 14:02:40;;;;;;;16.00;13.63;;;;;;;;;;5019221;28;20056;-69
2023/05/16 14:05:07;;;;;;;15.00;13.43;;;;;;;;;;5015571;28;20134;-69
2023/05/16 14:07:32;;;;;;;16.73;14.15;;;;;;;;;;5015907;28;20060;-69
2023/05/16 14:09:58;;;;;;;15.85;12.80;;;;;;;;;;5019100;28;20037;-68
2023/05/16 14:12:23;;;;;;;17.92;13.80;;;;;;;;;;5020673;28;20060;-68
2023/05/16 14:14:49;;;;;;;17.70;14.30;;;;;;;;;;5013626;28;20072;-68
2023/05/16 14:17:14;;;;;;;22.52;15.10;;;;;;;;;;5011921;28;20038;-68
2023/05/16 14:19:40;;;;;;;17.33;15.48;;;;;;;;;;5017927;28;20069;-67
2023/05/16 14:22:06;;;;;;;14.65;12.32;;;;;;;;;;5015183;28;20080;-69
2023/05/16 14:24:32;;;;;;;7.75;6.18;;;;;;;;;;5018320;28;20073;-69
2023/05/16 14:26:59;;;;;;;9.43;6.70;;;;;;;;;;5009878;28;20049;-69
2023/05/16 14:29:24;;;;;;;9.45;7.03;;;;;;;;;;5014593;28;20410;-68
2023/05/16 14:31:50;;;;;;;8.48;6.85;;;;;;;;;;5033912;28;20045;-73
2023/05/16 14:34:15;;;;;;;9.43;6.97;;;;;;;;;;5011246;28;20045;-68